Time;durP1;ratioP1;P1;durP2;ratioP2;P2;SDS_P1;SDS_P2;PMS_P1;PMS_P2;Temp;Humidity;BMP_temperature;BMP_pressure;BME280_temperature;BME280_humidity;BME280_pressure;Samples;Min_cycle;Max_cycle;Signal;HPM_P1;HPM_P2
2022/12/23 00:01:14;;;;;;;83.23;60.00;;;;;;;3.11;62.08;94786.22;5039418;28;20263;-67
2022/12/23 00:03:40;;;;;;;84.83;57.67;;;;;;;3.09;62.12;94783.72;5044005;28;20316;-67
2022/12/23 00:06:13;;;;;;;78.47;57.90;;;;;;;3.09;62.38;94787.13;5050353;28;20204;-66
2022/12/23 00:08:40;;;;;;;86.90;61.33;;;;;;;3.03;62.18;94790.19;5027807;28;20190;-67
2022/12/23 00:11:14;;;;;;;106.10;76.60;;;;;;;3.26;61.26;94787.66;5023674;28;20243;-67
2022/12/23 00:16:23;;;;;;;119.20;86.63;;;;;;;2.60;63.69;94787.28;5016961;28;20227;-67
2022/12/23 00:18:49;;;;;;;120.80;91.67;;;;;;;2.63;63.48;94798.25;5031094;28;20307;-66
2022/12/23 00:21:16;;;;;;;114.37;85.27;;;;;;;2.79;63.26;94805.78;5042495;28;20278;-66
2022/12/23 00:23:44;;;;;;;125.73;90.07;;;;;;;2.76;62.88;94800.81;5024896;28;20217;-67
2022/12/23 00:26:20;;;;;;;117.57;85.67;;;;;;;2.91;62.52;94811.84;5014295;28;20222;-68
2022/12/23 00:28:45;;;;;;;115.07;84.20;;;;;;;2.65;63.21;94804.19;5025825;28;20218;-67
2022/12/23 00:31:12;;;;;;;111.13;80.47;;;;;;;2.77;63.15;94802.47;5027420;28;20225;-67
2022/12/23 00:33:43;;;;;;;100.57;75.93;;;;;;;2.85;62.67;94805.34;5018803;28;20248;-67
2022/12/23 00:36:19;;;;;;;103.27;77.50;;;;;;;2.87;62.40;94797.44;5023541;28;20198;-67
2022/12/23 00:44:13;;;;;;;96.23;73.27;;;;;;;2.88;62.46;94797.31;5030642;28;20268;-67
2022/12/23 00:46:39;;;;;;;100.77;71.10;;;;;;;2.92;62.81;94786.72;5020598;28;20226;-67
2022/12/23 00:51:49;;;;;;;98.03;72.63;;;;;;;2.98;62.67;94789.69;5018814;28;20226;-68
2022/12/23 00:54:15;;;;;;;102.80;75.17;;;;;;;2.99;62.51;94780.13;5018975;28;20182;-67
2022/12/23 00:56:40;;;;;;;106.63;78.53;;;;;;;3.02;62.31;94775.56;5037452;28;20197;-67
2022/12/23 00:59:06;;;;;;;101.90;74.93;;;;;;;2.96;62.38;94781.19;5040288;28;20259;-67
2022/12/23 01:07:00;;;;;;;43.63;36.00;;;;;;;2.97;61.97;94790.66;5035756;28;20288;-65
2022/12/23 01:09:26;;;;;;;49.77;37.47;;;;;;;3.00;62.31;94795.63;5051825;28;20214;-67
2022/12/23 01:11:52;;;;;;;65.60;47.10;;;;;;;3.13;62.10;94795.56;5059884;28;20189;-67
2022/12/23 01:14:17;;;;;;;78.90;55.23;;;;;;;3.10;62.12;94795.75;5053225;28;20217;-66
2022/12/23 01:16:43;;;;;;;87.87;60.80;;;;;;;3.05;62.37;94782.31;5039269;28;20282;-66
2022/12/23 01:19:09;;;;;;;86.17;60.60;;;;;;;2.82;62.96;94781.38;5058487;28;20244;-66
2022/12/23 01:21:35;;;;;;;84.40;64.40;;;;;;;2.88;62.76;94780.91;5043479;28;20276;-66
2022/12/23 01:24:00;;;;;;;78.03;61.03;;;;;;;2.85;62.90;94792.34;5057600;28;20260;-66
2022/12/23 01:26:26;;;;;;;89.40;62.47;;;;;;;2.88;62.60;94783.50;5046625;28;20201;-66
2022/12/23 01:28:55;;;;;;;82.23;60.30;;;;;;;2.69;63.65;94788.38;5050064;28;20350;-66
2022/12/23 01:31:22;;;;;;;83.77;59.80;;;;;;;2.76;63.72;94792.19;5042510;28;20257;-66
2022/12/23 01:33:48;;;;;;;86.67;61.30;;;;;;;2.79;63.83;94784.19;5050023;28;20230;-66
2022/12/23 01:36:13;;;;;;;89.53;62.57;;;;;;;2.90;63.42;94789.44;5041274;28;20197;-66
2022/12/23 01:38:39;;;;;;;87.50;61.33;;;;;;;2.92;63.48;94787.56;5037107;28;20178;-66
2022/12/23 01:41:04;;;;;;;83.60;61.87;;;;;;;3.04;63.57;94775.44;5048935;28;20274;-66
2022/12/23 01:43:46;;;;;;;81.93;61.63;;;;;;;3.02;63.54;94772.97;5048977;28;20253;-66
2022/12/23 01:46:11;;;;;;;79.60;60.60;;;;;;;3.08;63.57;94779.47;5048038;28;20214;-66
2022/12/23 01:48:38;;;;;;;89.20;63.00;;;;;;;3.09;63.51;94766.38;5049953;28;20236;-67
2022/12/23 01:51:10;;;;;;;87.93;60.60;;;;;;;3.14;63.63;94773.81;5048102;28;20265;-66
2022/12/23 01:53:42;;;;;;;78.07;59.37;;;;;;;3.12;63.42;94761.88;5048049;28;20177;-66
2022/12/23 01:56:17;;;;;;;80.00;60.90;;;;;;;3.18;63.50;94767.47;5035782;28;20244;-66
2022/12/23 01:58:45;;;;;;;80.43;61.00;;;;;;;3.18;63.72;94757.09;5050029;28;20307;-66
2022/12/23 02:03:59;;;;;;;81.97;58.93;;;;;;;3.14;63.32;94744.44;5040249;28;20271;-66
2022/12/23 02:09:35;;;;;;;78.47;60.03;;;;;;;3.30;63.00;94724.16;5047322;28;20248;-66
2022/12/23 02:12:31;;;;;;;79.40;60.77;;;;;;;3.24;63.23;94748.81;5051508;28;20193;-66
2022/12/23 02:18:46;;;;;;;75.43;55.90;;;;;;;3.40;62.73;94727.72;5048489;28;20298;-66
2022/12/23 02:21:35;;;;;;;70.13;50.40;;;;;;;3.43;63.12;94724.06;5035368;28;20330;-66
2022/12/23 02:24:38;;;;;;;65.43;46.50;;;;;;;3.41;62.90;94721.56;5030395;28;20201;-66
2022/12/23 02:27:20;;;;;;;64.30;47.67;;;;;;;3.24;63.13;94722.03;5052461;28;20276;-66
2022/12/23 02:30:04;;;;;;;75.07;53.80;;;;;;;3.20;63.52;94717.97;5032544;28;20216;-66
2022/12/23 02:32:39;;;;;;;74.30;56.40;;;;;;;3.31;63.53;94726.66;5034961;28;20224;-66
2022/12/23 02:35:13;;;;;;;75.67;57.67;;;;;;;3.18;63.89;94705.13;5035690;28;20224;-66
2022/12/23 02:37:48;;;;;;;70.57;54.80;;;;;;;3.23;63.77;94717.75;5031417;28;20301;-66
2022/12/23 02:40:20;;;;;;;76.30;58.13;;;;;;;3.11;63.74;94713.47;5049939;28;20224;-66
2022/12/23 02:42:49;;;;;;;74.03;57.17;;;;;;;3.17;63.65;94716.44;5049023;28;20248;-66
2022/12/23 02:45:36;;;;;;;85.90;56.77;;;;;;;3.45;62.79;94722.19;5031834;28;20186;-66
2022/12/23 02:48:22;;;;;;;88.53;57.07;;;;;;;3.19;63.19;94719.75;5030392;28;20217;-66
2022/12/23 02:50:51;;;;;;;79.23;58.10;;;;;;;2.97;63.69;94717.09;5049362;28;20296;-66
2022/12/23 02:53:23;;;;;;;73.87;57.43;;;;;;;2.52;65.70;94725.53;5030978;28;20217;-66
2022/12/23 02:55:52;;;;;;;76.10;57.00;;;;;;;2.63;65.61;94714.38;5021747;28;20218;-66
2022/12/23 02:58:22;;;;;;;77.87;55.77;;;;;;;2.92;64.78;94720.03;5032572;28;20236;-66
2022/12/23 03:00:49;;;;;;;80.60;56.77;;;;;;;3.01;64.23;94728.91;5015967;28;20242;-66
2022/12/23 03:03:16;;;;;;;72.60;52.83;;;;;;;2.99;63.34;94726.41;5059363;28;20237;-66
2022/12/23 03:05:46;;;;;;;73.00;51.87;;;;;;;2.87;63.67;94725.56;5053216;28;20208;-66
2022/12/23 03:08:22;;;;;;;72.70;53.50;;;;;;;2.88;63.84;94728.97;5026238;28;20218;-66
2022/12/23 03:11:00;;;;;;;67.77;50.27;;;;;;;3.00;63.25;94722.91;5044734;28;20232;-66
2022/12/23 03:13:43;;;;;;;65.63;49.60;;;;;;;3.11;62.72;94727.28;5035168;28;20218;-66
2022/12/23 03:16:28;;;;;;;56.23;43.57;;;;;;;3.12;62.09;94725.50;5047332;28;20221;-66
2022/12/23 03:19:03;;;;;;;55.57;41.63;;;;;;;3.09;62.38;94735.19;5049416;28;20217;-66
2022/12/23 03:21:47;;;;;;;51.77;39.93;;;;;;;3.22;61.33;94724.72;5054131;28;20229;-66
2022/12/23 03:24:24;;;;;;;55.43;40.40;;;;;;;3.29;61.04;94714.72;5036755;28;20281;-66
2022/12/23 03:27:08;;;;;;;48.70;38.27;;;;;;;3.36;60.60;94712.47;5038789;28;20181;-66
2022/12/23 03:29:50;;;;;;;49.27;38.83;;;;;;;3.32;60.49;94719.69;5048871;28;20310;-67
2022/12/23 03:32:17;;;;;;;54.43;40.47;;;;;;;3.30;60.01;94703.38;5048338;28;20271;-67
2022/12/23 03:34:46;;;;;;;53.13;39.03;;;;;;;3.30;59.53;94704.19;5049470;28;20256;-67
2022/12/23 03:37:15;;;;;;;50.87;39.30;;;;;;;3.28;60.18;94708.66;5026343;28;20225;-67
2022/12/23 03:40:09;;;;;;;53.33;40.90;;;;;;;3.30;59.92;94727.56;5023334;28;20214;-66
2022/12/23 03:42:38;;;;;;;53.53;42.23;;;;;;;3.35;60.04;94721.22;5034873;28;20232;-67
2022/12/23 03:45:14;;;;;;;59.57;45.27;;;;;;;3.24;60.34;94719.41;5041858;28;20212;-66
2022/12/23 03:47:48;;;;;;;54.83;44.47;;;;;;;3.32;60.21;94727.47;5055543;28;20181;-67
2022/12/23 03:50:17;;;;;;;62.33;48.53;;;;;;;3.33;60.44;94726.50;5027731;28;20230;-67
2022/12/23 03:53:16;;;;;;;66.70;50.70;;;;;;;3.27;60.86;94727.81;5026174;28;20222;-66
2022/12/23 03:55:58;;;;;;;68.53;52.47;;;;;;;3.29;60.70;94722.50;5025198;28;20229;-67
2022/12/23 03:58:59;;;;;;;65.57;52.57;;;;;;;3.30;61.12;94717.19;5022454;28;20219;-67
2022/12/23 04:01:27;;;;;;;63.70;49.57;;;;;;;3.31;60.89;94725.78;5026225;28;20245;-67
2022/12/23 04:04:05;;;;;;;79.70;59.80;;;;;;;3.16;62.04;94729.56;5016553;28;20231;-67
2022/12/23 04:06:40;;;;;;;75.73;56.13;;;;;;;3.26;62.09;94717.50;5034613;28;20225;-66
2022/12/23 04:09:07;;;;;;;75.10;57.87;;;;;;;3.29;62.06;94725.09;5046975;28;20212;-67
2022/12/23 04:11:34;;;;;;;63.53;49.20;;;;;;;3.36;61.36;94726.28;5038416;28;20174;-67
2022/12/23 04:14:00;;;;;;;71.70;53.63;;;;;;;3.36;61.76;94717.66;5049124;28;20217;-65
2022/12/23 04:16:26;;;;;;;72.90;55.43;;;;;;;3.36;61.73;94713.28;5046981;28;20222;-67
2022/12/23 04:18:51;;;;;;;84.13;61.83;;;;;;;3.34;62.00;94725.56;5042475;28;20217;-67
2022/12/23 04:21:17;;;;;;;84.53;64.00;;;;;;;3.41;62.09;94731.97;5040054;28;20186;-67
2022/12/23 04:23:42;;;;;;;80.00;60.87;;;;;;;3.40;62.26;94729.50;5031987;28;20231;-67
2022/12/23 04:26:07;;;;;;;63.90;48.20;;;;;;;3.29;61.82;94732.91;5028799;28;20229;-67
2022/12/23 04:28:33;;;;;;;65.37;47.43;;;;;;;3.41;61.50;94736.34;5019759;28;20211;-67
2022/12/23 04:30:58;;;;;;;57.47;44.40;;;;;;;3.38;61.83;94721.81;5033842;28;20209;-67
2022/12/23 04:33:24;;;;;;;61.27;46.00;;;;;;;3.27;62.66;94722.59;5043616;28;20230;-67
2022/12/23 04:35:49;;;;;;;61.20;45.90;;;;;;;3.38;62.58;94714.00;5031111;28;20186;-67
2022/12/23 04:38:14;;;;;;;65.93;47.80;;;;;;;3.44;63.23;94715.31;5023110;28;20262;-67
2022/12/23 04:40:45;;;;;;;65.70;49.33;;;;;;;3.41;63.52;94711.16;5039580;28;20218;-67
2022/12/23 04:43:10;;;;;;;63.83;48.80;;;;;;;3.40;63.93;94722.53;5043383;28;20254;-67
2022/12/23 04:45:36;;;;;;;66.47;50.60;;;;;;;3.41;63.98;94713.78;5028155;28;20237;-67
2022/12/23 04:48:01;;;;;;;64.63;50.50;;;;;;;3.45;64.04;94723.00;5019687;28;20291;-67
2022/12/23 04:50:27;;;;;;;71.73;51.60;;;;;;;3.36;63.99;94718.47;5039530;28;20183;-67
2022/12/23 04:52:52;;;;;;;70.90;51.93;;;;;;;3.37;64.27;94714.09;5039167;28;20267;-67
2022/12/23 04:55:17;;;;;;;71.43;51.00;;;;;;;3.30;64.97;94711.97;5056636;28;20221;-67
2022/12/23 04:57:43;;;;;;;65.47;52.17;;;;;;;3.29;64.98;94725.94;5034921;28;20217;-66
2022/12/23 05:00:09;;;;;;;67.40;51.50;;;;;;;3.37;64.74;94724.50;5030631;28;20221;-67
2022/12/23 05:02:34;;;;;;;68.33;52.13;;;;;;;3.41;64.61;94736.34;5016329;28;20198;-66
2022/12/23 05:05:00;;;;;;;74.30;52.57;;;;;;;3.47;63.91;94730.66;5037817;28;20225;-67
2022/12/23 05:07:25;;;;;;;67.40;54.33;;;;;;;3.30;65.10;94729.34;5036507;28;20226;-67
2022/12/23 05:09:51;;;;;;;69.93;53.00;;;;;;;3.34;64.95;94730.75;5033029;28;20213;-67
2022/12/23 05:12:19;;;;;;;67.60;53.03;;;;;;;3.41;64.98;94746.72;5022308;28;20189;-67
2022/12/23 05:14:45;;;;;;;69.23;54.23;;;;;;;3.35;64.94;94745.44;5028699;28;20207;-67
2022/12/23 05:17:10;;;;;;;72.57;56.13;;;;;;;3.38;64.92;94737.41;5034321;28;20226;-67
2022/12/23 05:19:35;;;;;;;68.37;54.77;;;;;;;3.46;64.76;94750.66;5044676;28;20432;-67
2022/12/23 05:22:05;;;;;;;76.80;59.00;;;;;;;3.48;64.18;94753.97;5019189;28;20227;-67
2022/12/23 05:24:30;;;;;;;77.07;59.63;;;;;;;3.35;64.98;94753.22;5030432;28;20224;-67
2022/12/23 05:26:56;;;;;;;79.30;61.60;;;;;;;2.91;66.62;94749.53;5049535;28;20181;-67
2022/12/23 05:29:21;;;;;;;79.40;61.93;;;;;;;3.19;65.66;94757.91;5042523;28;20232;-67
2022/12/23 05:31:47;;;;;;;76.67;59.63;;;;;;;3.28;65.34;94770.19;5033453;28;20215;-67
2022/12/23 05:34:13;;;;;;;80.17;61.97;;;;;;;3.37;64.81;94761.75;5037251;28;20264;-67
2022/12/23 05:36:39;;;;;;;80.37;63.47;;;;;;;3.46;64.64;94760.22;5047488;28;20221;-67
2022/12/23 05:39:04;;;;;;;81.83;65.53;;;;;;;3.49;64.99;94755.59;5047495;28;20244;-66
2022/12/23 05:41:29;;;;;;;81.83;67.30;;;;;;;3.51;64.75;94750.31;5047745;28;20190;-67
2022/12/23 05:43:55;;;;;;;89.37;67.30;;;;;;;3.54;64.76;94747.47;5046709;28;20226;-67
2022/12/23 05:46:20;;;;;;;96.70;72.20;;;;;;;3.59;64.55;94736.72;5045276;28;20211;-67
2022/12/23 05:48:46;;;;;;;95.10;71.57;;;;;;;3.64;64.88;94751.03;5043668;28;20228;-67
2022/12/23 05:51:11;;;;;;;100.40;78.00;;;;;;;3.61;64.92;94753.88;5045606;28;20185;-67
2022/12/23 05:53:36;;;;;;;96.90;75.30;;;;;;;3.69;64.58;94753.28;5044284;28;20170;-67
2022/12/23 05:56:04;;;;;;;92.73;72.37;;;;;;;3.72;64.93;94751.28;5049313;28;20217;-67
2022/12/23 05:58:29;;;;;;;96.10;73.47;;;;;;;3.71;65.10;94741.81;5047677;28;20264;-67
2022/12/23 06:00:55;;;;;;;98.87;77.03;;;;;;;3.74;65.12;94752.00;5040007;28;20296;-67
2022/12/23 06:03:20;;;;;;;98.33;77.13;;;;;;;3.81;65.06;94757.53;5046432;28;20314;-66
2022/12/23 06:05:50;;;;;;;105.77;79.90;;;;;;;3.86;64.84;94752.81;5056235;28;20177;-66
2022/12/23 06:08:15;;;;;;;106.67;80.23;;;;;;;3.81;65.04;94754.94;5047909;28;20233;-66
2022/12/23 06:10:41;;;;;;;99.70;80.70;;;;;;;3.84;64.63;94754.72;5046483;28;20283;-67
2022/12/23 06:13:06;;;;;;;103.53;79.73;;;;;;;3.82;64.49;94756.59;5036962;28;20237;-67
2022/12/23 06:15:31;;;;;;;95.63;75.47;;;;;;;3.78;65.50;94765.59;5045043;28;20217;-66
2022/12/23 06:17:57;;;;;;;93.93;73.10;;;;;;;3.84;64.89;94757.31;5049192;28;20178;-67
2022/12/23 06:20:22;;;;;;;96.03;71.17;;;;;;;3.73;65.00;94752.94;5056277;28;20222;-67
2022/12/23 06:22:48;;;;;;;96.40;71.93;;;;;;;3.79;64.85;94756.81;5033291;28;20294;-67
2022/12/23 06:25:13;;;;;;;95.20;70.20;;;;;;;3.78;65.16;94763.00;5031199;28;20238;-67
2022/12/23 06:27:39;;;;;;;88.93;69.40;;;;;;;3.90;64.49;94762.06;5032961;28;20214;-67
2022/12/23 06:30:05;;;;;;;81.13;63.57;;;;;;;3.88;64.81;94752.72;5045131;28;20182;-66
2022/12/23 06:32:31;;;;;;;83.50;63.13;;;;;;;3.91;64.35;94768.91;5033132;28;20193;-67
2022/12/23 06:34:56;;;;;;;83.00;61.80;;;;;;;3.78;64.84;94769.97;5025441;28;20302;-67
2022/12/23 06:37:22;;;;;;;82.63;63.50;;;;;;;3.83;64.59;94762.66;5033501;28;20214;-65
2022/12/23 06:39:47;;;;;;;90.03;63.87;;;;;;;3.92;64.54;94764.53;5028499;28;20214;-65
2022/12/23 06:42:13;;;;;;;83.77;59.77;;;;;;;3.90;64.39;94759.47;5034652;28;20206;-65
2022/12/23 06:44:38;;;;;;;79.27;59.80;;;;;;;4.00;64.30;94766.53;5027146;28;20186;-66
2022/12/23 06:47:03;;;;;;;74.97;55.90;;;;;;;4.03;63.95;94779.31;5033125;28;20309;-67
2022/12/23 06:49:29;;;;;;;69.30;50.00;;;;;;;4.01;64.03;94769.03;5027338;28;20326;-67
2022/12/23 06:51:54;;;;;;;60.43;45.67;;;;;;;4.03;63.20;94761.91;5045766;28;20226;-67
2022/12/23 06:54:20;;;;;;;55.77;43.53;;;;;;;4.04;62.44;94768.81;5032983;28;20230;-66
2022/12/23 06:56:45;;;;;;;64.10;44.17;;;;;;;4.02;62.06;94762.88;5029574;28;20191;-67
2022/12/23 06:59:11;;;;;;;58.07;43.13;;;;;;;3.97;62.03;94765.00;5038754;28;20230;-67
2022/12/23 07:01:36;;;;;;;51.27;41.87;;;;;;;4.01;62.10;94776.00;5025473;28;20313;-67
2022/12/23 07:04:02;;;;;;;57.17;40.53;;;;;;;4.11;61.25;94775.16;5027506;28;20230;-66
2022/12/23 07:06:28;;;;;;;54.30;41.43;;;;;;;4.03;60.96;94774.13;5042315;28;20222;-66
2022/12/23 07:08:53;;;;;;;51.47;40.07;;;;;;;3.92;60.93;94778.34;5029252;28;20210;-67
2022/12/23 07:11:19;;;;;;;59.67;41.87;;;;;;;4.04;60.65;94779.22;5026097;28;20221;-67
2022/12/23 07:13:45;;;;;;;68.47;42.07;;;;;;;4.03;60.82;94776.72;5036934;28;20241;-67
2022/12/23 07:16:11;;;;;;;67.90;44.60;;;;;;;4.04;60.51;94778.38;5046105;28;20237;-68
2022/12/23 07:18:36;;;;;;;58.73;43.57;;;;;;;4.07;60.41;94786.78;5044675;28;20226;-68
2022/12/23 07:21:03;;;;;;;64.27;44.17;;;;;;;4.09;60.67;94781.44;5034223;28;20182;-69
2022/12/23 07:23:29;;;;;;;65.07;46.03;;;;;;;4.07;60.59;94783.34;5049572;28;20225;-67
2022/12/23 07:25:55;;;;;;;63.10;43.83;;;;;;;4.01;60.89;94782.06;5048148;28;20225;-67
2022/12/23 07:28:24;;;;;;;66.77;44.40;;;;;;;4.03;60.52;94785.34;5028428;28;20236;-67
2022/12/23 07:30:49;;;;;;;62.37;44.90;;;;;;;4.03;60.10;94768.91;5042359;28;20236;-67
2022/12/23 07:33:15;;;;;;;57.47;40.97;;;;;;;3.94;60.19;94768.66;5053693;28;20222;-67
2022/12/23 07:35:43;;;;;;;54.97;40.93;;;;;;;3.96;59.72;94777.19;5037401;28;20217;-67
2022/12/23 07:38:09;;;;;;;58.03;40.10;;;;;;;3.85;60.48;94792.78;5041514;28;20224;-67
2022/12/23 07:40:35;;;;;;;55.00;41.33;;;;;;;3.80;60.48;94779.31;5050614;28;20224;-67
2022/12/23 07:43:01;;;;;;;55.97;40.67;;;;;;;3.88;60.10;94787.34;5046301;28;20233;-67
2022/12/23 07:45:28;;;;;;;56.63;40.63;;;;;;;3.92;59.92;94793.97;5043601;28;20221;-67
2022/12/23 07:47:55;;;;;;;52.77;39.50;;;;;;;3.96;59.51;94791.97;5062360;28;20209;-67
2022/12/23 07:50:21;;;;;;;54.17;39.00;;;;;;;3.87;60.24;94785.69;5037863;28;20221;-67
2022/12/23 07:52:47;;;;;;;54.93;39.70;;;;;;;3.94;60.12;94797.28;5039161;28;20214;-67
2022/12/23 07:55:13;;;;;;;54.63;40.97;;;;;;;4.02;60.29;94796.69;5039575;28;20313;-67
2022/12/23 07:57:39;;;;;;;55.97;40.40;;;;;;;4.23;59.66;94802.03;5030089;28;20249;-67
2022/12/23 08:00:07;;;;;;;56.00;41.67;;;;;;;4.35;59.12;94802.84;5047173;28;20196;-67
2022/12/23 08:02:32;;;;;;;58.40;40.63;;;;;;;4.36;59.31;94797.53;5047191;28;20236;-67
2022/12/23 08:04:58;;;;;;;58.43;40.37;;;;;;;4.47;59.37;94796.69;5047446;28;20249;-66
2022/12/23 08:07:23;;;;;;;52.10;38.13;;;;;;;4.56;59.27;94795.97;5049301;28;20233;-66
2022/12/23 08:09:49;;;;;;;60.63;37.27;;;;;;;4.69;58.65;94797.63;5041181;28;20249;-66
2022/12/23 08:12:15;;;;;;;55.03;38.63;;;;;;;4.74;59.24;94800.69;5047709;28;20186;-66
2022/12/23 08:14:40;;;;;;;58.77;38.43;;;;;;;4.62;58.52;94792.03;5058762;28;20184;-66
2022/12/23 08:17:05;;;;;;;48.90;36.03;;;;;;;4.78;58.96;94800.28;5039267;28;20225;-67
2022/12/23 08:19:31;;;;;;;52.50;36.30;;;;;;;4.93;58.92;94805.25;5044796;28;20275;-66
2022/12/23 08:21:56;;;;;;;52.47;37.13;;;;;;;5.04;58.49;94808.66;5044467;28;20218;-66
2022/12/23 08:24:22;;;;;;;51.80;35.07;;;;;;;5.05;58.14;94809.47;5033238;28;20305;-66
2022/12/23 08:26:47;;;;;;;52.33;35.20;;;;;;;5.15;57.99;94805.16;5044959;28;20186;-66
2022/12/23 08:29:13;;;;;;;52.57;37.33;;;;;;;5.26;57.80;94807.72;5041319;28;20225;-66
2022/12/23 08:31:38;;;;;;;57.53;39.63;;;;;;;5.31;57.42;94804.75;5040291;28;20228;-66
2022/12/23 08:34:03;;;;;;;50.17;36.40;;;;;;;5.34;57.40;94798.47;5045493;28;20293;-66
2022/12/23 08:36:31;;;;;;;52.93;34.27;;;;;;;5.35;57.35;94797.53;5046951;28;20225;-66
2022/12/23 08:38:59;;;;;;;44.23;33.70;;;;;;;5.34;57.36;94807.09;5041151;28;20268;-66
2022/12/23 08:41:30;;;;;;;48.37;35.20;;;;;;;5.46;56.97;94802.69;5045211;28;20220;-67
2022/12/23 08:43:57;;;;;;;45.97;33.47;;;;;;;5.39;57.40;94802.34;5028783;28;20229;-66
2022/12/23 08:46:23;;;;;;;45.70;33.63;;;;;;;5.57;56.66;94805.25;5018382;28;20358;-66
2022/12/23 08:48:49;;;;;;;49.97;35.77;;;;;;;5.68;56.32;94801.75;5024035;28;20213;-66
2022/12/23 08:51:15;;;;;;;50.00;35.10;;;;;;;5.75;56.51;94795.88;5040326;28;20189;-66
2022/12/23 08:53:41;;;;;;;42.33;33.47;;;;;;;5.82;56.44;94793.59;5043243;28;20178;-66
2022/12/23 08:56:16;;;;;;;45.73;33.97;;;;;;;5.74;56.38;94786.38;5041950;28;20224;-66
2022/12/23 08:58:44;;;;;;;44.67;31.77;;;;;;;5.90;55.92;94790.34;5039614;28;20239;-66
2022/12/23 09:01:11;;;;;;;46.03;33.87;;;;;;;6.04;55.52;94790.06;5039688;28;20226;-66
2022/12/23 09:03:39;;;;;;;44.87;33.83;;;;;;;6.08;55.54;94788.81;5047892;28;20229;-67
2022/12/23 09:06:13;;;;;;;43.53;31.70;;;;;;;6.29;54.93;94787.97;5046214;28;20209;-66
2022/12/23 09:08:39;;;;;;;44.60;32.30;;;;;;;6.36;54.64;94784.69;5041068;28;20186;-66
2022/12/23 09:11:08;;;;;;;49.13;34.20;;;;;;;6.46;53.97;94789.94;5042081;28;20221;-67
2022/12/23 09:13:33;;;;;;;48.37;34.97;;;;;;;6.65;53.13;94790.97;5046849;28;20217;-66
2022/12/23 09:15:58;;;;;;;49.63;36.40;;;;;;;6.50;53.55;94783.50;5038039;28;20224;-67
2022/12/23 09:18:24;;;;;;;46.67;35.20;;;;;;;6.61;53.80;94787.78;5044470;28;20217;-66
2022/12/23 09:20:59;;;;;;;47.27;37.43;;;;;;;6.84;52.82;94789.22;5045762;28;20272;-67
2022/12/23 09:23:25;;;;;;;47.40;36.77;;;;;;;6.98;52.45;94789.81;5041850;28;20232;-67
2022/12/23 09:25:50;;;;;;;48.07;37.03;;;;;;;7.17;51.49;94789.00;5037377;28;20225;-67
2022/12/23 09:28:15;;;;;;;46.70;36.83;;;;;;;7.16;51.53;94785.53;5042568;28;20305;-67
2022/12/23 09:30:41;;;;;;;41.63;34.77;;;;;;;7.03;52.02;94787.59;5025098;28;20222;-67
2022/12/23 09:33:06;;;;;;;44.63;34.47;;;;;;;7.12;51.61;94780.75;5023731;28;20257;-66
2022/12/23 09:35:32;;;;;;;48.10;36.40;;;;;;;7.24;51.55;94784.84;5025029;28;20186;-67
2022/12/23 09:37:58;;;;;;;49.93;38.93;;;;;;;7.29;51.73;94785.28;5049353;28;20224;-66
2022/12/23 09:40:23;;;;;;;52.03;39.90;;;;;;;7.38;50.94;94789.69;5054313;28;20278;-66
2022/12/23 09:43:02;;;;;;;52.37;41.80;;;;;;;7.37;51.24;94785.41;5048021;28;20236;-66
2022/12/23 09:45:45;;;;;;;48.17;37.70;;;;;;;7.41;51.28;94785.97;5046913;28;20233;-66
2022/12/23 09:48:16;;;;;;;52.80;40.07;;;;;;;7.48;51.31;94789.69;5041007;28;20210;-68
2022/12/23 09:50:42;;;;;;;49.63;39.13;;;;;;;7.53;51.11;94781.41;5047639;28;20186;-67
2022/12/23 09:53:14;;;;;;;47.03;39.20;;;;;;;7.51;50.98;94785.00;5047211;28;20233;-67
2022/12/23 09:55:45;;;;;;;54.57;40.73;;;;;;;7.49;50.62;94779.09;5054897;28;20228;-66
2022/12/23 09:58:21;;;;;;;55.70;41.30;;;;;;;7.28;50.65;94776.59;5045309;28;20286;-67
2022/12/23 10:01:00;;;;;;;47.07;38.97;;;;;;;7.44;51.02;94780.47;5049778;28;20290;-67
2022/12/23 10:03:41;;;;;;;53.27;40.90;;;;;;;7.38;51.01;94779.22;5049103;28;20278;-67
2022/12/23 10:06:16;;;;;;;52.53;40.47;;;;;;;7.18;51.54;94777.56;5059858;28;20186;-67
2022/12/23 10:08:46;;;;;;;54.63;41.60;;;;;;;7.24;51.55;94774.41;5039222;28;20280;-67
2022/12/23 10:11:20;;;;;;;51.83;41.00;;;;;;;7.42;51.45;94780.59;5062818;28;20221;-67
2022/12/23 10:14:00;;;;;;;50.43;42.27;;;;;;;7.36;51.50;94775.94;5042517;28;20250;-67
2022/12/23 10:16:34;;;;;;;55.63;42.47;;;;;;;7.60;51.11;94769.44;5047723;28;20233;-67
2022/12/23 10:19:12;;;;;;;61.77;44.53;;;;;;;7.76;50.46;94758.41;5036082;28;20217;-67
2022/12/23 10:21:48;;;;;;;55.53;43.63;;;;;;;7.89;50.22;94761.53;5031856;28;20213;-67
2022/12/23 10:24:39;;;;;;;59.50;43.80;;;;;;;8.05;50.33;94766.19;5030086;28;20210;-67
2022/12/23 10:27:33;;;;;;;60.80;44.43;;;;;;;8.05;50.10;94761.78;5021755;28;20199;-67
2022/12/23 10:30:20;;;;;;;57.13;43.30;;;;;;;8.10;49.99;94758.69;5017246;28;20197;-67
2022/12/23 10:33:12;;;;;;;55.87;44.57;;;;;;;8.17;50.37;94749.31;5045031;28;20226;-67
2022/12/23 10:35:56;;;;;;;59.43;44.33;;;;;;;8.27;49.97;94751.91;5032274;28;20218;-67
2022/12/23 10:38:46;;;;;;;64.13;44.87;;;;;;;8.24;50.09;94745.16;5029284;28;20221;-68
2022/12/23 10:41:17;;;;;;;54.07;45.33;;;;;;;8.39;50.21;94740.28;5043296;28;20218;-68
2022/12/23 10:44:08;;;;;;;52.50;43.93;;;;;;;8.54;49.92;94738.84;5026182;28;20291;-68
2022/12/23 10:46:39;;;;;;;57.53;44.87;;;;;;;8.63;49.77;94737.13;5021320;28;20226;-68
2022/12/23 10:49:31;;;;;;;61.33;47.87;;;;;;;8.66;49.07;94731.63;5016486;28;20280;-68
2022/12/23 10:52:02;;;;;;;61.90;46.40;;;;;;;8.91;48.75;94722.19;5024802;28;20229;-67
2022/12/23 10:54:35;;;;;;;60.57;47.80;;;;;;;9.00;48.70;94723.91;5024261;28;20300;-67
2022/12/23 10:57:02;;;;;;;58.97;46.20;;;;;;;9.23;47.64;94723.50;5021330;28;20494;-66
2022/12/23 10:59:31;;;;;;;60.63;46.13;;;;;;;9.24;48.06;94720.69;5052495;28;20193;-68
2022/12/23 11:02:10;;;;;;;60.17;47.97;;;;;;;9.22;47.91;94720.03;5037399;28;20221;-67
2022/12/23 11:04:38;;;;;;;57.63;46.83;;;;;;;9.35;47.72;94718.81;5050521;28;20213;-67
2022/12/23 11:07:07;;;;;;;61.43;47.40;;;;;;;9.56;47.62;94710.63;5061699;28;20304;-67
2022/12/23 11:09:43;;;;;;;62.87;46.60;;;;;;;9.79;47.23;94716.22;5035959;28;20228;-67
2022/12/23 11:12:10;;;;;;;60.13;45.13;;;;;;;9.85;46.97;94711.16;5039990;28;20194;-67
2022/12/23 11:14:40;;;;;;;58.83;44.50;;;;;;;9.92;46.97;94720.06;5047581;28;20225;-67
2022/12/23 11:17:19;;;;;;;54.83;43.40;;;;;;;9.84;46.71;94711.31;5038300;28;20285;-67
2022/12/23 11:19:44;;;;;;;54.43;44.13;;;;;;;9.91;46.78;94707.06;5050453;28;20271;-67
2022/12/23 11:22:21;;;;;;;56.37;45.40;;;;;;;9.83;47.04;94709.66;5042073;28;20221;-67
2022/12/23 11:24:47;;;;;;;63.73;46.73;;;;;;;9.77;47.25;94705.84;5051841;28;20280;-67
2022/12/23 11:27:17;;;;;;;57.90;46.20;;;;;;;9.82;46.99;94713.28;5045449;28;20186;-67
2022/12/23 11:29:50;;;;;;;65.13;47.60;;;;;;;9.72;46.83;94714.19;5047743;28;20186;-67
2022/12/23 11:32:25;;;;;;;68.73;47.63;;;;;;;9.45;47.84;94709.88;5038858;28;20240;-68
2022/12/23 11:34:51;;;;;;;61.40;47.70;;;;;;;9.45;48.26;94720.38;5039580;28;20229;-68
2022/12/23 11:37:39;;;;;;;58.70;48.33;;;;;;;9.52;47.84;94718.00;5047710;28;20232;-66
2022/12/23 11:40:29;;;;;;;63.60;49.73;;;;;;;9.49;48.11;94719.13;5038858;28;20781;-67
2022/12/23 11:42:58;;;;;;;76.47;51.73;;;;;;;9.38;48.18;94714.13;5039991;28;20308;-67
2022/12/23 11:45:27;;;;;;;69.53;54.00;;;;;;;9.35;48.66;94726.69;5048599;28;20245;-68
2022/12/23 11:47:52;;;;;;;66.43;52.07;;;;;;;9.33;48.88;94726.84;5048257;28;20234;-67
2022/12/23 11:50:29;;;;;;;67.53;55.97;;;;;;;9.30;49.20;94729.75;5044948;28;20304;-68
2022/12/23 11:53:08;;;;;;;70.90;56.13;;;;;;;9.22;49.43;94725.28;5038219;28;20355;-69
2022/12/23 11:55:34;;;;;;;77.33;55.50;;;;;;;9.13;49.89;94726.19;5046199;28;20222;-67
2022/12/23 11:58:01;;;;;;;70.80;54.20;;;;;;;9.02;50.25;94721.16;5037762;28;20232;-67
2022/12/23 12:00:40;;;;;;;66.03;53.37;;;;;;;9.05;50.42;94720.84;5050455;28;20221;-67
2022/12/23 12:03:15;;;;;;;66.10;54.13;;;;;;;9.12;50.09;94713.22;5037714;28;20202;-67